Time;durP1;ratioP1;P1;durP2;ratioP2;P2;SDS_P1;SDS_P2;PMS_P1;PMS_P2;Temp;Humidity;BMP_temperature;BMP_pressure;BME280_temperature;BME280_humidity;BME280_pressure;Samples;Min_cycle;Max_cycle;Signal;HPM_P1;HPM_P2
2023/03/31 00:01:06;;;;;;;;;1.00;1.00;;;;;20.34;52.93;99668.17;110217;1250;20003;-39
2023/03/31 00:03:37;;;;;;;;;1.00;1.00;;;;;20.34;53.16;99671.81;110230;1264;20251;-41
2023/03/31 00:06:04;;;;;;;;;1.00;1.00;;;;;20.35;52.99;99676.97;110193;1247;17850;-39
2023/03/31 00:08:34;;;;;;;;;1.00;1.00;;;;;20.34;53.06;99674.84;110222;1264;18562;-44
2023/03/31 00:11:01;;;;;;;;;1.00;1.00;;;;;20.33;52.84;99673.30;110255;1249;19557;-39
2023/03/31 00:13:29;;;;;;;;;1.00;1.00;;;;;20.35;53.04;99675.52;110215;1264;19331;-40
2023/03/31 00:15:56;;;;;;;;;1.00;1.00;;;;;20.34;52.92;99675.41;110227;1250;19948;-42
2023/03/31 00:18:25;;;;;;;;;1.00;1.00;;;;;20.34;53.13;99674.69;110216;1256;19359;-40
2023/03/31 00:20:53;;;;;;;;;1.00;1.00;;;;;20.33;53.14;99673.14;110236;1250;19346;-39
2023/03/31 00:23:26;;;;;;;;;2.00;1.00;;;;;20.34;52.97;99684.42;110207;1264;18740;-41
2023/03/31 00:25:54;;;;;;;;;1.00;1.00;;;;;20.34;52.77;99682.62;110243;1248;19626;-42
2023/03/31 00:28:21;;;;;;;;;1.00;1.00;;;;;20.36;52.89;99688.41;110212;1256;19877;-39
2023/03/31 00:30:48;;;;;;;;;1.00;1.00;;;;;20.34;52.83;99683.71;110206;1264;20544;-40
2023/03/31 00:33:16;;;;;;;;;1.00;1.00;;;;;20.34;52.81;99688.47;110204;1264;19333;-40
2023/03/31 00:35:44;;;;;;;;;1.00;1.00;;;;;20.35;53.06;99685.95;110215;1250;21866;-40
2023/03/31 00:38:20;;;;;;;;;1.00;1.00;;;;;20.35;52.88;99683.50;110220;1264;18574;-39
2023/03/31 00:40:48;;;;;;;;;1.00;1.00;;;;;20.34;52.80;99679.19;110230;1250;19713;-41
2023/03/31 00:43:16;;;;;;;;;1.00;1.00;;;;;20.36;52.85;99682.67;110240;1264;19071;-40
2023/03/31 00:45:44;;;;;;;;;1.00;1.00;;;;;20.35;52.87;99678.36;110216;1247;19971;-39
2023/03/31 00:48:12;;;;;;;;;1.00;1.00;;;;;20.35;52.77;99671.86;110235;1264;19549;-39
2023/03/31 00:50:40;;;;;;;;;1.00;1.00;;;;;20.34;52.75;99665.44;110240;1249;19471;-39
2023/03/31 00:53:07;;;;;;;;;1.00;1.00;;;;;20.32;52.89;99659.86;110239;1257;19925;-39
2023/03/31 00:55:35;;;;;;;;;1.00;1.00;;;;;20.34;53.01;99671.23;110194;1264;18115;-40
2023/03/31 00:58:03;;;;;;;;;1.00;1.00;;;;;20.34;52.82;99672.55;110252;1264;19525;-42
2023/03/31 01:00:30;;;;;;;;;1.00;1.00;;;;;20.33;52.85;99663.01;110175;1257;19914;-40
2023/03/31 01:02:58;;;;;;;;;1.00;1.00;;;;;20.34;52.84;99659.84;110228;1264;18270;-39
2023/03/31 01:05:25;;;;;;;;;1.00;1.00;;;;;20.33;52.81;99657.80;110191;1264;21778;-39
2023/03/31 01:07:53;;;;;;;;;1.00;1.00;;;;;20.33;52.89;99657.81;110231;1247;18565;-39
2023/03/31 01:10:20;;;;;;;;;1.00;1.00;;;;;20.34;52.71;99661.13;110224;1264;18195;-40
2023/03/31 01:12:48;;;;;;;;;1.00;1.00;;;;;20.33;52.78;99658.31;110194;1264;17885;-40
2023/03/31 01:15:15;;;;;;;;;1.00;1.00;;;;;20.33;52.78;99667.02;110191;1258;19932;-39
2023/03/31 01:17:44;;;;;;;;;1.00;1.00;;;;;20.33;52.90;99669.34;110175;1264;22071;-39
2023/03/31 01:20:12;;;;;;;;;1.00;1.00;;;;;20.33;52.93;99663.77;110341;1247;19316;-39
2023/03/31 01:22:40;;;;;;;;;1.00;1.00;;;;;20.33;52.84;99662.30;110340;1250;19896;-39
2023/03/31 01:25:07;;;;;;;;;1.00;1.00;;;;;20.34;53.01;99663.27;110275;1250;19641;-39
2023/03/31 01:27:35;;;;;;;;;1.00;1.00;;;;;20.33;52.77;99659.70;110302;1247;20152;-40
2023/03/31 01:30:03;;;;;;;;;1.00;1.00;;;;;20.33;52.77;99660.08;110097;1250;19903;-40
2023/03/31 01:32:30;;;;;;;;;1.00;1.00;;;;;20.33;53.03;99648.94;110213;1257;19577;-40
2023/03/31 01:34:58;;;;;;;;;1.50;1.50;;;;;20.32;52.92;99644.96;110232;1257;19201;-40
2023/03/31 01:37:25;;;;;;;;;1.00;1.00;;;;;20.33;52.80;99645.08;110251;1264;18685;-39
2023/03/31 01:39:52;;;;;;;;;1.00;1.00;;;;;20.33;52.63;99649.81;110209;1264;18426;-42
2023/03/31 01:42:20;;;;;;;;;1.00;1.00;;;;;20.34;52.80;99648.98;110227;1250;19279;-40
2023/03/31 01:44:47;;;;;;;;;1.00;1.00;;;;;20.33;52.71;99640.14;110204;1250;19989;-42
2023/03/31 01:47:17;;;;;;;;;1.00;1.00;;;;;20.33;52.78;99637.05;110228;1247;19590;-38
2023/03/31 01:49:44;;;;;;;;;1.00;1.00;;;;;20.33;52.81;99625.70;110232;1250;19271;-39
2023/03/31 01:52:12;;;;;;;;;1.00;1.00;;;;;20.33;52.99;99631.77;110221;1264;18760;-39
2023/03/31 01:54:40;;;;;;;;;1.00;1.00;;;;;20.33;52.89;99631.45;110177;1264;18179;-39
2023/03/31 01:57:07;;;;;;;;;1.00;1.00;;;;;20.32;52.91;99628.25;110203;1250;19227;-42
2023/03/31 01:59:34;;;;;;;;;3.00;3.00;;;;;20.33;52.84;99631.06;110204;1264;21641;-40
2023/03/31 02:02:02;;;;;;;;;1.00;1.00;;;;;20.33;52.88;99631.95;110234;1264;19797;-40
2023/03/31 02:04:29;;;;;;;;;1.00;1.00;;;;;20.33;52.70;99629.46;110186;1264;17980;-40
2023/03/31 02:06:56;;;;;;;;;1.00;1.00;;;;;20.34;52.96;99627.52;110219;1247;19073;-40
2023/03/31 02:09:24;;;;;;;;;1.00;1.00;;;;;20.33;52.63;99623.64;110192;1264;18160;-41
2023/03/31 02:11:51;;;;;;;;;1.00;1.00;;;;;20.33;52.67;99622.70;110219;1250;19425;-41
2023/03/31 02:14:20;;;;;;;;;2.00;1.00;;;;;20.33;52.70;99618.46;110220;1256;18952;-41
2023/03/31 02:16:48;;;;;;;;;1.00;1.00;;;;;20.32;52.64;99620.89;110244;1256;19484;-41
2023/03/31 02:19:17;;;;;;;;;1.00;1.00;;;;;20.33;52.76;99616.20;110241;1264;17893;-40
2023/03/31 02:21:45;;;;;;;;;1.00;1.00;;;;;20.32;52.82;99616.40;110244;1249;19955;-40
2023/03/31 02:24:12;;;;;;;;;1.00;1.00;;;;;20.32;52.62;99616.86;110255;1250;19613;-42
2023/03/31 02:26:39;;;;;;;;;2.00;1.00;;;;;20.31;52.63;99612.64;110226;1250;22109;-40
2023/03/31 02:29:06;;;;;;;;;1.00;1.00;;;;;20.32;52.70;99613.44;110240;1257;22714;-40
2023/03/31 02:31:34;;;;;;;;;1.00;1.00;;;;;20.32;52.80;99613.60;110262;1264;19566;-41
2023/03/31 02:34:01;;;;;;;;;1.00;1.00;;;;;20.33;52.73;99611.71;110257;1250;19273;-41
2023/03/31 02:36:29;;;;;;;;;1.00;1.00;;;;;20.32;52.80;99608.12;110239;1264;18589;-39
2023/03/31 02:38:56;;;;;;;;;1.00;1.00;;;;;20.32;52.86;99594.59;110238;1248;19524;-40
2023/03/31 02:41:24;;;;;;;;;1.00;1.00;;;;;20.32;52.54;99605.07;110214;1250;19295;-40
2023/03/31 02:43:51;;;;;;;;;1.00;1.00;;;;;20.32;52.59;99611.52;110251;1250;20174;-40
2023/03/31 02:46:18;;;;;;;;;1.00;1.00;;;;;20.32;52.66;99616.66;110229;1264;21803;-41
2023/03/31 02:48:46;;;;;;;;;1.00;1.00;;;;;20.33;52.72;99615.73;110230;1250;19365;-41
2023/03/31 02:51:13;;;;;;;;;1.50;1.50;;;;;20.32;52.54;99611.80;110233;1264;19585;-40
2023/03/31 02:53:40;;;;;;;;;1.00;1.00;;;;;20.32;52.63;99613.77;110210;1247;18141;-40
2023/03/31 02:56:08;;;;;;;;;1.00;1.00;;;;;20.32;52.67;99617.78;110267;1250;19358;-41
2023/03/31 02:58:35;;;;;;;;;1.00;1.00;;;;;20.31;52.58;99623.31;110240;1264;19110;-40
2023/03/31 03:01:02;;;;;;;;;1.00;1.00;;;;;20.31;52.76;99624.11;110222;1250;19607;-41
2023/03/31 03:03:30;;;;;;;;;1.00;1.00;;;;;20.31;52.49;99623.02;110242;1264;17869;-39
2023/03/31 03:05:57;;;;;;;;;1.00;1.00;;;;;20.31;52.61;99622.81;110234;1264;21985;-39
2023/03/31 03:08:25;;;;;;;;;1.00;1.00;;;;;20.31;52.64;99619.58;110208;1250;19670;-39
2023/03/31 03:10:52;;;;;;;;;1.00;1.00;;;;;20.31;52.78;99622.31;110232;1250;19214;-42
2023/03/31 03:13:19;;;;;;;;;1.00;1.00;;;;;20.31;52.58;99624.40;110186;1257;21816;-39
2023/03/31 03:15:46;;;;;;;;;1.00;1.00;;;;;20.30;52.51;99622.39;110242;1254;19614;-40
2023/03/31 03:18:14;;;;;;;;;1.00;1.00;;;;;20.30;52.63;99622.02;110247;1264;19188;-40
2023/03/31 03:20:41;;;;;;;;;1.00;1.00;;;;;20.31;52.67;99622.48;110222;1257;19906;-41
2023/03/31 03:23:08;;;;;;;;;1.00;1.00;;;;;20.31;52.53;99626.79;110190;1250;19604;-39
2023/03/31 03:25:36;;;;;;;;;1.00;1.00;;;;;20.31;52.57;99624.66;110193;1263;17901;-40
2023/03/31 03:28:03;;;;;;;;;1.00;1.00;;;;;20.31;52.79;99625.95;110325;1264;18557;-40
2023/03/31 03:30:31;;;;;;;;;1.00;1.00;;;;;20.31;52.74;99624.70;110297;1250;19649;-40
2023/03/31 03:32:58;;;;;;;;;1.00;1.00;;;;;20.31;52.64;99625.74;110271;1264;18131;-44
2023/03/31 03:35:26;;;;;;;;;1.00;1.00;;;;;20.31;52.66;99623.27;110268;1247;19984;-41
2023/03/31 03:37:53;;;;;;;;;1.00;1.00;;;;;20.29;52.78;99619.63;110263;1250;19663;-41
2023/03/31 03:40:20;;;;;;;;;1.00;1.00;;;;;20.30;52.57;99615.91;110181;1250;19382;-41
2023/03/31 03:42:48;;;;;;;;;1.00;1.00;;;;;20.29;52.71;99615.45;110171;1257;20981;-41
2023/03/31 03:45:15;;;;;;;;;1.00;1.00;;;;;20.29;52.64;99612.34;110316;1264;18189;-39
2023/03/31 03:47:42;;;;;;;;;1.00;1.00;;;;;20.30;52.74;99611.38;110250;1247;20280;-40
2023/03/31 03:50:10;;;;;;;;;1.00;1.00;;;;;20.30;52.74;99614.64;110232;1247;21927;-41
2023/03/31 03:52:38;;;;;;;;;1.00;1.00;;;;;20.30;52.82;99611.17;110210;1250;19623;-41
2023/03/31 03:55:05;;;;;;;;;1.00;1.00;;;;;20.29;52.79;99607.99;110231;1250;19339;-41
2023/03/31 03:57:33;;;;;;;;;1.00;1.00;;;;;20.31;52.69;99603.09;110226;1247;18401;-41
2023/03/31 04:00:00;;;;;;;;;1.00;1.00;;;;;20.30;52.75;99603.35;110214;1264;19389;-40
2023/03/31 04:02:28;;;;;;;;;1.00;1.00;;;;;20.30;52.63;99599.36;110194;1264;21462;-41
2023/03/31 04:04:55;;;;;;;;;1.00;1.00;;;;;20.30;52.69;99593.46;110199;1264;20114;-40
2023/03/31 04:07:23;;;;;;;;;1.00;1.00;;;;;20.31;52.68;99595.14;110239;1264;18183;-41
2023/03/31 04:09:50;;;;;;;;;1.00;1.00;;;;;20.30;52.61;99594.27;110219;1264;19183;-40
2023/03/31 04:12:17;;;;;;;;;2.00;2.00;;;;;20.30;52.67;99597.61;110207;1257;19890;-40
2023/03/31 04:14:45;;;;;;;;;1.00;1.00;;;;;20.29;52.80;99596.82;110211;1250;19658;-39
2023/03/31 04:17:14;;;;;;;;;1.00;1.00;;;;;20.29;52.65;99598.98;110206;1247;19481;-40
2023/03/31 04:19:42;;;;;;;;;1.00;1.00;;;;;20.29;52.58;99598.81;110218;1257;20193;-44
2023/03/31 04:22:10;;;;;;;;;1.00;1.00;;;;;20.29;52.65;99597.35;110225;1250;19553;-40
2023/03/31 04:24:37;;;;;;;;;1.00;1.00;;;;;20.29;52.55;99597.90;110225;1249;19244;-39
2023/03/31 04:27:06;;;;;;;;;1.00;1.00;;;;;20.28;52.72;99587.67;110231;1257;19884;-39
2023/03/31 04:29:36;;;;;;;;;1.00;1.00;;;;;20.28;52.52;99586.89;110212;1264;18134;-39
2023/03/31 04:32:03;;;;;;;;;1.00;1.00;;;;;20.29;52.72;99583.04;110197;1250;19422;-41
2023/03/31 04:34:34;;;;;;;;;1.00;1.00;;;;;20.28;52.71;99583.11;110224;1264;18546;-40
2023/03/31 04:37:02;;;;;;;;;1.00;1.00;;;;;20.28;52.72;99578.09;110270;1264;21837;-39
2023/03/31 04:39:30;;;;;;;;;1.00;1.00;;;;;20.27;52.76;99575.81;110194;1250;19336;-40
2023/03/31 04:41:57;;;;;;;;;1.00;1.00;;;;;20.29;52.67;99574.33;110196;1247;20011;-41
2023/03/31 04:44:25;;;;;;;;;1.00;1.00;;;;;20.29;52.63;99575.05;110227;1250;19653;-40
2023/03/31 04:46:53;;;;;;;;;1.00;1.00;;;;;20.28;52.53;99575.38;110206;1264;20162;-40
2023/03/31 04:49:20;;;;;;;;;1.00;1.00;;;;;20.28;52.67;99570.19;110184;1257;21448;-40
2023/03/31 04:51:47;;;;;;;;;1.00;1.00;;;;;20.29;52.46;99568.14;110164;1248;19645;-44
2023/03/31 04:54:15;;;;;;;;;1.00;1.00;;;;;20.28;52.66;99561.35;110187;1264;19216;-40
2023/03/31 04:56:42;;;;;;;;;1.00;1.00;;;;;20.28;52.59;99562.10;110168;1250;20064;-40
2023/03/31 04:59:09;;;;;;;;;1.00;1.00;;;;;20.28;52.48;99561.02;110098;1257;19421;-40
2023/03/31 05:01:37;;;;;;;;;1.00;1.00;;;;;20.28;52.66;99558.38;110028;1263;17919;-41
2023/03/31 05:04:04;;;;;;;;;1.00;1.00;;;;;20.28;52.54;99558.98;110171;1250;19969;-40
2023/03/31 05:06:31;;;;;;;;;1.00;1.00;;;;;20.28;52.69;99553.00;110249;1248;22406;-40
2023/03/31 05:08:59;;;;;;;;;1.00;1.00;;;;;20.30;52.81;99552.11;110259;1264;17968;-40
2023/03/31 05:11:27;;;;;;;;;1.00;1.00;;;;;20.33;52.56;99550.77;110196;1250;20088;-42
2023/03/31 05:13:55;;;;;;;;;1.00;1.00;;;;;20.34;52.79;99548.02;110231;1257;19588;-40
2023/03/31 05:16:22;;;;;;;;;1.00;1.00;;;;;20.35;52.98;99553.93;110215;1264;19024;-41
2023/03/31 05:18:49;;;;;;;;;1.00;1.00;;;;;20.36;52.78;99551.77;110255;1248;20147;-40
2023/03/31 05:21:17;;;;;;;;;2.00;2.00;;;;;20.38;52.71;99556.98;110217;1247;19850;-41
2023/03/31 05:23:44;;;;;;;;;5.00;5.00;;;;;20.41;52.73;99556.80;110239;1250;19356;-40
2023/03/31 05:26:12;;;;;;;;;35.00;35.00;;;;;20.43;52.80;99553.67;110151;1247;22444;-40
2023/03/31 05:28:40;;;;;;;;;55.00;49.00;;;;;20.44;53.08;99551.91;110199;1264;18195;-40
2023/03/31 05:31:07;;;;;;;;;52.00;47.50;;;;;20.46;53.80;99549.77;110222;1264;21918;-42
2023/03/31 05:33:38;;;;;;;;;34.00;31.50;;;;;20.48;54.71;99545.77;110189;1264;18618;-40
2023/03/31 05:36:06;;;;;;;;;27.00;26.00;;;;;20.51;54.93;99542.16;110237;1247;19992;-41
2023/03/31 05:38:33;;;;;;;;;25.00;25.00;;;;;20.50;54.87;99540.86;110181;1247;18498;-41
2023/03/31 05:41:01;;;;;;;;;19.00;19.00;;;;;20.48;54.69;99543.46;110211;1256;20492;-40
2023/03/31 05:43:28;;;;;;;;;16.00;14.50;;;;;20.46;54.42;99538.34;110228;1264;18713;-40
2023/03/31 05:45:55;;;;;;;;;14.00;13.00;;;;;20.43;54.75;99542.11;110229;1247;19748;-39
2023/03/31 05:48:23;;;;;;;;;13.00;11.00;;;;;20.43;54.45;99542.64;110201;1264;18573;-39
2023/03/31 05:50:50;;;;;;;;;10.00;10.00;;;;;20.44;54.47;99531.81;110211;1264;18550;-37
2023/03/31 05:53:17;;;;;;;;;8.00;8.00;;;;;20.42;54.80;99522.30;110189;1248;22124;-40
2023/03/31 05:55:45;;;;;;;;;7.33;7.33;;;;;20.39;54.98;99523.09;110235;1250;19930;-40
2023/03/31 05:58:12;;;;;;;;;8.00;8.00;;;;;20.38;54.88;99525.91;110099;1256;21883;-41
2023/03/31 06:00:39;;;;;;;;;8.00;7.00;;;;;20.41;54.68;99526.45;110219;1248;19324;-40
2023/03/31 06:03:07;;;;;;;;;5.00;5.00;;;;;20.46;54.61;99528.36;110280;1248;20002;-40
2023/03/31 06:05:35;;;;;;;;;5.00;5.00;;;;;20.47;54.58;99526.34;110241;1247;18160;-40
2023/03/31 06:08:02;;;;;;;;;4.00;4.00;;;;;20.45;54.56;99521.51;110146;1263;19036;-42
2023/03/31 06:10:30;;;;;;;;;4.00;4.00;;;;;20.42;54.75;99521.13;110208;1250;20029;-41
2023/03/31 06:12:57;;;;;;;;;4.00;4.00;;;;;20.42;54.66;99520.08;110191;1250;19671;-40
2023/03/31 06:15:24;;;;;;;;;5.00;5.00;;;;;20.42;54.73;99520.25;110226;1250;19277;-40
2023/03/31 06:17:52;;;;;;;;;6.00;6.00;;;;;20.43;54.70;99521.67;110132;1257;19834;-42
2023/03/31 06:20:20;;;;;;;;;5.00;4.00;;;;;20.41;54.70;99522.10;110108;1250;20165;-40
2023/03/31 06:22:47;;;;;;;;;5.00;4.00;;;;;20.41;54.59;99519.29;110293;1264;17984;-42
2023/03/31 06:25:15;;;;;;;;;2.33;2.33;;;;;20.40;54.44;99515.86;110233;1247;19101;-40
2023/03/31 06:27:42;;;;;;;;;4.00;4.00;;;;;20.40;54.49;99512.80;110228;1248;19639;-43
2023/03/31 06:30:10;;;;;;;;;4.00;4.00;;;;;20.40;54.46;99512.45;110239;1264;17939;-37
2023/03/31 06:32:37;;;;;;;;;4.00;4.00;;;;;20.40;54.43;99514.42;110153;1264;18722;-43
2023/03/31 06:35:04;;;;;;;;;2.00;2.00;;;;;20.39;54.48;99517.42;110212;1264;18181;-41
2023/03/31 06:37:32;;;;;;;;;4.00;4.00;;;;;20.39;54.29;99515.30;110245;1264;19215;-41
2023/03/31 06:39:59;;;;;;;;;3.67;3.67;;;;;20.39;54.34;99520.22;110303;1250;20157;-40
2023/03/31 06:42:26;;;;;;;;;3.50;3.50;;;;;20.38;54.24;99525.16;110271;1247;19909;-40
2023/03/31 06:44:54;;;;;;;;;4.67;4.67;;;;;20.38;54.27;99525.30;110257;1264;19323;-40
2023/03/31 06:47:22;;;;;;;;;2.00;2.00;;;;;20.38;54.36;99523.91;110209;1250;19964;-40
2023/03/31 06:49:49;;;;;;;;;5.00;4.00;;;;;20.39;54.16;99522.34;110231;1248;19719;-41
2023/03/31 06:52:16;;;;;;;;;4.00;4.00;;;;;20.43;53.90;99521.13;110180;1257;19111;-40
2023/03/31 06:54:44;;;;;;;;;4.00;4.00;;;;;20.45;53.95;99522.45;110197;1264;19225;-40
2023/03/31 06:57:11;;;;;;;;;2.00;2.00;;;;;20.45;53.79;99522.45;110235;1256;19481;-41
2023/03/31 06:59:39;;;;;;;;;2.00;2.00;;;;;20.44;53.98;99522.39;110228;1257;20582;-41
2023/03/31 07:02:06;;;;;;;;;2.00;2.00;;;;;20.44;53.88;99522.73;110227;1248;19974;-40
2023/03/31 07:04:33;;;;;;;;;2.00;2.00;;;;;20.46;53.89;99517.08;110238;1263;18175;-39
2023/03/31 07:07:01;;;;;;;;;4.00;2.00;;;;;20.48;54.04;99517.04;110200;1256;23089;-39
2023/03/31 07:09:28;;;;;;;;;3.00;3.00;;;;;20.48;53.97;99518.13;110207;1264;18498;-42
2023/03/31 07:11:56;;;;;;;;;3.00;3.00;;;;;20.49;54.09;99512.14;110192;1248;20588;-39
2023/03/31 07:14:23;;;;;;;;;2.00;2.00;;;;;20.51;54.97;99509.54;110214;1264;17903;-39
2023/03/31 07:16:50;;;;;;;;;2.00;2.00;;;;;20.51;55.06;99512.02;110194;1250;19934;-39
2023/03/31 07:19:18;;;;;;;;;3.00;3.00;;;;;20.52;55.23;99511.68;110253;1251;19590;-39
2023/03/31 07:21:45;;;;;;;;;4.00;2.00;;;;;20.52;54.91;99510.02;110264;1264;17889;-39
2023/03/31 07:24:12;;;;;;;;;2.00;2.00;;;;;20.53;55.12;99511.83;110276;1250;19979;-40
2023/03/31 07:26:40;;;;;;;;;4.00;2.00;;;;;20.52;55.26;99515.91;110259;1264;19209;-40
2023/03/31 07:29:07;;;;;;;;;4.50;4.00;;;;;20.52;55.28;99510.78;110207;1263;17874;-41
2023/03/31 07:31:34;;;;;;;;;4.00;4.00;;;;;20.49;55.04;99512.09;110188;1264;18716;-39
2023/03/31 07:34:02;;;;;;;;;5.00;4.00;;;;;20.46;54.62;99509.30;110212;1264;19834;-42
2023/03/31 07:36:29;;;;;;;;;7.00;5.00;;;;;20.42;54.31;99504.17;110223;1250;20925;-40
2023/03/31 07:38:56;;;;;;;;;7.50;7.00;;;;;20.39;54.24;99505.33;110235;1247;20096;-40
2023/03/31 07:41:25;;;;;;;;;7.00;5.00;;;;;20.35;54.03;99503.48;110213;1264;19522;-43
2023/03/31 07:43:52;;;;;;;;;9.00;8.00;;;;;20.33;54.05;99500.48;110208;1263;18063;-41
2023/03/31 07:46:19;;;;;;;;;6.00;6.00;;;;;20.32;53.73;99502.46;110210;1250;20135;-41
2023/03/31 07:48:47;;;;;;;;;8.00;8.00;;;;;20.30;53.28;99502.38;110194;1264;18204;-42
2023/03/31 07:51:14;;;;;;;;;5.00;5.00;;;;;20.28;53.33;99497.47;110194;1264;17899;-41
2023/03/31 07:53:41;;;;;;;;;7.50;7.00;;;;;20.28;53.26;99496.39;110208;1264;18488;-41
2023/03/31 07:56:09;;;;;;;;;9.00;7.00;;;;;20.27;52.87;99500.01;110215;1249;19621;-40
2023/03/31 07:58:36;;;;;;;;;7.00;5.00;;;;;20.26;52.71;99493.05;110202;1247;22007;-42
2023/03/31 08:01:03;;;;;;;;;8.33;7.00;;;;;20.25;52.38;99492.14;110213;1250;19940;-40
2023/03/31 08:03:31;;;;;;;;;5.00;5.00;;;;;20.24;51.99;99491.52;110233;1256;21707;-40
2023/03/31 08:05:58;;;;;;;;;9.50;8.50;;;;;20.24;52.14;99487.53;110177;1250;19224;-40
2023/03/31 08:08:25;;;;;;;;;9.00;5.00;;;;;20.23;52.17;99485.90;110219;1264;18554;-40
2023/03/31 08:10:53;;;;;;;;;9.33;7.00;;;;;20.20;51.93;99480.52;110183;1264;19619;-41
2023/03/31 08:13:20;;;;;;;;;7.00;5.00;;;;;20.18;51.84;99477.09;110216;1264;18020;-41
2023/03/31 08:15:48;;;;;;;;;9.00;7.00;;;;;20.16;51.65;99474.57;110274;1250;21526;-41
2023/03/31 08:18:15;;;;;;;;;8.00;8.00;;;;;20.15;51.26;99467.31;110240;1248;18159;-41
2023/03/31 08:20:43;;;;;;;;;9.50;9.00;;;;;20.13;51.29;99467.02;110255;1264;18112;-42
2023/03/31 08:23:10;;;;;;;;;7.00;6.50;;;;;20.11;51.15;99465.17;110265;1257;20117;-41
2023/03/31 08:25:38;;;;;;;;;10.00;9.00;;;;;20.11;50.97;99465.19;110291;1250;19732;-42
2023/03/31 08:28:05;;;;;;;;;9.00;9.00;;;;;20.11;51.03;99463.55;109944;1256;482269;-41
2023/03/31 08:30:33;;;;;;;;;6.50;6.50;;;;;20.10;50.85;99458.73;110304;1262;19970;-41
2023/03/31 08:33:01;;;;;;;;;7.67;7.67;;;;;20.09;50.88;99457.75;110272;1263;19537;-40
2023/03/31 08:35:28;;;;;;;;;9.00;9.00;;;;;20.10;50.74;99459.17;110156;1264;18176;-43
2023/03/31 08:37:55;;;;;;;;;7.00;7.00;;;;;20.14;50.83;99456.40;110241;1250;19936;-41
2023/03/31 08:40:23;;;;;;;;;7.67;7.67;;;;;20.17;50.63;99448.63;110242;1264;19843;-41
2023/03/31 08:42:50;;;;;;;;;7.00;6.00;;;;;20.19;50.86;99444.44;110204;1250;19355;-41
2023/03/31 08:45:18;;;;;;;;;9.33;7.00;;;;;20.23;50.80;99440.53;110190;1248;19256;-41
2023/03/31 08:47:45;;;;;;;;;6.00;6.00;;;;;20.26;50.90;99437.70;110211;1250;19684;-39
2023/03/31 08:50:12;;;;;;;;;7.00;7.00;;;;;20.28;51.02;99435.23;110186;1257;19197;-40
2023/03/31 08:52:40;;;;;;;;;8.00;6.50;;;;;20.30;50.96;99431.21;110210;1264;21997;-40
2023/03/31 08:55:07;;;;;;;;;8.00;4.00;;;;;20.30;50.92;99433.27;110211;1264;18128;-40
2023/03/31 08:57:35;;;;;;;;;6.00;6.00;;;;;20.29;51.24;99433.77;110157;1247;19342;-41
2023/03/31 09:00:05;;;;;;;;;5.00;5.00;;;;;20.29;51.39;99432.97;110204;1264;18720;-42
2023/03/31 09:02:33;;;;;;;;;4.00;4.00;;;;;20.28;51.38;99431.47;110248;1247;19614;-39
2023/03/31 09:05:00;;;;;;;;;5.00;5.00;;;;;20.29;51.56;99430.84;110225;1264;19280;-40
2023/03/31 09:07:28;;;;;;;;;5.00;5.00;;;;;20.29;51.35;99427.87;110203;1264;22127;-39
2023/03/31 09:09:55;;;;;;;;;4.00;4.00;;;;;20.30;51.44;99428.20;110193;1264;21216;-40
2023/03/31 09:12:22;;;;;;;;;4.00;4.00;;;;;20.30;51.53;99424.48;110197;1251;19700;-39
2023/03/31 09:14:49;;;;;;;;;4.00;4.00;;;;;20.30;51.35;99419.96;110220;1264;19231;-39
2023/03/31 09:17:17;;;;;;;;;2.50;2.50;;;;;20.30;51.52;99418.52;110235;1257;19541;-41
2023/03/31 09:19:44;;;;;;;;;4.00;4.00;;;;;20.31;51.60;99421.88;110206;1264;19047;-39
2023/03/31 09:22:11;;;;;;;;;2.00;2.00;;;;;20.31;51.72;99417.81;110223;1258;19848;-42
2023/03/31 09:24:39;;;;;;;;;2.00;2.00;;;;;20.31;51.61;99418.36;110233;1249;19683;-39
2023/03/31 09:27:06;;;;;;;;;2.00;2.00;;;;;20.32;51.72;99420.99;110215;1264;18148;-40
2023/03/31 09:29:33;;;;;;;;;2.00;2.00;;;;;20.31;51.65;99417.73;110238;1264;18578;-41
2023/03/31 09:32:01;;;;;;;;;4.00;4.00;;;;;20.28;51.76;99418.02;110229;1264;18147;-41
2023/03/31 09:34:30;;;;;;;;;5.00;4.00;;;;;20.27;51.71;99416.51;110207;1264;17898;-41
2023/03/31 09:36:57;;;;;;;;;6.00;6.00;;;;;20.25;51.74;99413.23;110233;1247;21082;-41
2023/03/31 09:39:24;;;;;;;;;7.00;5.33;;;;;20.23;51.58;99409.27;110219;1250;19584;-41
2023/03/31 09:41:52;;;;;;;;;7.00;7.00;;;;;20.20;51.61;99413.80;110201;1264;20690;-41
2023/03/31 09:44:20;;;;;;;;;6.00;6.00;;;;;20.18;51.35;99411.05;110222;1249;19997;-42
2023/03/31 09:46:47;;;;;;;;;9.00;9.00;;;;;20.14;50.92;99416.46;110210;1264;18132;-41
2023/03/31 09:49:14;;;;;;;;;13.67;12.33;;;;;20.13;50.95;99412.79;110198;1264;21452;-41
2023/03/31 09:51:42;;;;;;;;;9.00;6.00;;;;;20.14;50.98;99408.95;110160;1248;22212;-41
2023/03/31 09:54:09;;;;;;;;;6.00;6.00;;;;;20.13;50.92;99402.11;110213;1247;19960;-42
2023/03/31 09:56:36;;;;;;;;;6.00;6.00;;;;;20.13;50.67;99402.54;110225;1247;17920;-42
2023/03/31 09:59:04;;;;;;;;;10.00;9.00;;;;;20.11;50.64;99400.23;110208;1250;20022;-41
2023/03/31 10:01:32;;;;;;;;;9.00;9.00;;;;;20.10;50.64;99397.50;110219;1247;21891;-41
2023/03/31 10:03:59;;;;;;;;;7.00;6.50;;;;;20.08;50.39;99393.61;110208;1251;19363;-42
2023/03/31 10:06:26;;;;;;;;;10.00;9.00;;;;;20.09;50.32;99392.55;110230;1247;19865;-41
2023/03/31 10:08:54;;;;;;;;;7.67;7.00;;;;;20.10;50.26;99387.30;110221;1251;19556;-41
2023/03/31 10:11:21;;;;;;;;;7.00;7.00;;;;;20.09;50.31;99385.11;110207;1264;19242;-41
2023/03/31 10:13:48;;;;;;;;;6.67;6.67;;;;;20.08;50.09;99384.48;110113;1264;18720;-42
2023/03/31 10:16:16;;;;;;;;;12.00;10.00;;;;;20.06;50.27;99385.29;110190;1264;19819;-41
2023/03/31 10:18:43;;;;;;;;;12.00;12.00;;;;;20.04;50.16;99383.38;110206;1264;18106;-41
2023/03/31 10:21:10;;;;;;;;;7.00;7.00;;;;;20.03;50.07;99376.77;110206;1260;19004;-41
2023/03/31 10:23:38;;;;;;;;;9.00;9.00;;;;;20.03;50.40;99373.54;110204;1249;20290;-44
2023/03/31 10:26:05;;;;;;;;;13.00;11.33;;;;;20.05;50.14;99373.05;110206;1258;19227;-39
2023/03/31 10:28:32;;;;;;;;;7.00;7.00;;;;;20.09;50.35;99373.17;110192;1247;20033;-43
2023/03/31 10:31:02;;;;;;;;;7.00;7.00;;;;;20.10;50.48;99368.13;110203;1250;20438;-39
2023/03/31 10:33:29;;;;;;;;;9.00;9.00;;;;;20.13;50.48;99361.73;110200;1250;19152;-39
2023/03/31 10:35:56;;;;;;;;;6.67;6.67;;;;;20.15;50.25;99361.19;110225;1248;18663;-42
2023/03/31 10:38:24;;;;;;;;;9.00;7.00;;;;;20.18;50.44;99360.54;110214;1256;21741;-39
2023/03/31 10:40:51;;;;;;;;;7.00;7.00;;;;;20.18;50.44;99363.01;110235;1250;19495;-40
2023/03/31 10:43:18;;;;;;;;;6.50;6.00;;;;;20.19;50.49;99364.30;110155;1264;20386;-41
2023/03/31 10:45:46;;;;;;;;;8.00;7.00;;;;;20.19;50.59;99358.11;110217;1250;19653;-40
2023/03/31 10:48:13;;;;;;;;;6.33;6.33;;;;;20.19;50.79;99355.09;110205;1264;17893;-40
2023/03/31 10:50:40;;;;;;;;;6.50;6.00;;;;;20.20;50.90;99351.70;110217;1250;21638;-40
2023/03/31 10:53:08;;;;;;;;;6.00;6.00;;;;;20.22;51.15;99344.84;110210;1248;19602;-40
2023/03/31 10:55:35;;;;;;;;;9.00;6.00;;;;;20.24;51.09;99341.45;110207;1250;17884;-41
2023/03/31 10:58:03;;;;;;;;;9.00;6.00;;;;;20.25;51.35;99335.39;110230;1264;18582;-40
2023/03/31 11:00:30;;;;;;;;;7.00;6.00;;;;;20.25;51.47;99329.27;110205;1250;19564;-41
2023/03/31 11:02:57;;;;;;;;;6.00;6.00;;;;;20.25;51.44;99328.98;110154;1264;19245;-42
2023/03/31 11:05:25;;;;;;;;;4.67;4.67;;;;;20.27;51.54;99329.79;110231;1250;20013;-41
2023/03/31 11:07:52;;;;;;;;;5.00;5.00;;;;;20.30;51.58;99323.81;110203;1264;18136;-39
2023/03/31 11:10:19;;;;;;;;;6.00;6.00;;;;;20.32;52.01;99322.66;110236;1264;17883;-39
2023/03/31 11:12:48;;;;;;;;;3.50;3.50;;;;;20.32;51.90;99326.42;110213;1247;22364;-41
2023/03/31 11:15:16;;;;;;;;;9.00;7.00;;;;;20.33;51.83;99324.14;110218;1250;19599;-41
2023/03/31 11:17:43;;;;;;;;;9.00;9.00;;;;;20.32;52.29;99319.75;110201;1263;17898;-40
2023/03/31 11:20:11;;;;;;;;;9.00;9.00;;;;;20.38;52.27;99319.49;110207;1264;21721;-40
2023/03/31 11:22:39;;;;;;;;;12.00;10.00;;;;;20.34;52.03;99313.89;110210;1247;21581;-40
2023/03/31 11:25:06;;;;;;;;;10.00;9.00;;;;;20.34;52.09;99303.95;110191;1257;19452;-40